x

Ne Burgeo Bank (44255) Wave Buoy

10:00am - Fri 30th Jan 2015 All times are AST. -4 hours from GMT.

  • Sig Wave height 5.2ft
  • Peak Period 10s
  • Wind
    22mph, 27mph gusts
  • Sea Temp 35°f
  • Air Temp 29°f
  • Sea Pressure 1012.2mb
  • Ne Burgeo Bank
  • Ne Burgeo Bank

More Historic Weather Station data

Upgrade to MSW Pro to gain access to the past 30 days of data for over 8000 Wavebouys and Weather Stations around the globe.

Join Pro

Comparision Forecast

View Surf forecast
   
Fri 01/30 10:00am 5ft 10s 22 27 mph 1012.2mb 35f 29f
9:00am 5.5ft 10s 22 27 mph 1013.1mb 35f 29f
8:00am 5.5ft 5s 18 25 mph 1014.4mb 35f 30f
7:00am 5.5ft 10s 18 22 mph 1015.3mb 35f 30f
6:00am 5.5ft 11s 16 20 mph 1016.1mb 35f 32f
5:00am 6ft 10s 20 22 mph 1016.4mb 35f 32f
4:00am 6ft 12s 22 27 mph 1016.8mb 35f 33f
3:00am 6ft 10s 22 27 mph 1017.1mb 35f 33f
2:00am 6ft 10s 22 25 mph 1018.3mb 35f 32f
1:00am 6ft 9s 22
mph
1018.9mb 35f 31f
12:00am 6.5ft 10s 20 25 mph 1019.6mb 35f 31f
Thu 01/29 11:00pm 6ft 11s 18 22 mph 1019.8mb 35f 31f
10:00pm 6ft 9s 16 20 mph 1019.9mb 35f 32f
9:00pm 6ft 11s 18
mph
1020.2mb 35f 31f
8:00pm  -   -  16
mph
1020.1mb - 31f
7:00pm 6.5ft 11s 11 13 mph 1020.8mb 35f 31f
6:00pm 6.5ft 11s 11 13 mph 1020.7mb 35f 31f
5:00pm 7.5ft 11s 11 13 mph 1020.1mb 35f 31f
4:00pm 7.5ft 12s 13 18 mph 1019.3mb 35f 31f
3:00pm 7.5ft 12s 18 25 mph 1018.7mb 35f 30f
2:00pm 8ft 12s 16 22 mph 1018.6mb 35f 30f
1:00pm 8ft 12s 18 22 mph 1018.2mb 35f 30f
12:00pm 8ft 11s 20 25 mph 1017.9mb 35f 30f
11:00am 9ft 11s 18 22 mph 1018mb 35f 30f
10:00am 9ft 12s 20 27 mph 1017.2mb 35f 30f
9:00am 10ft 12s 22 27 mph 1016mb 35f 31f
8:00am 9.5ft 12s 25 29 mph 1014.1mb 35f 32f
7:00am 9ft 11s 27 31 mph 1012.5mb 35f 32f
6:00am 9ft 12s 22 27 mph 1011.1mb 35f 34f
5:00am 8.5ft 11s 22 27 mph 1009.8mb 35f 33f
4:00am 9ft 12s 16 20 mph 1008.9mb 35f 36f
3:00am 8.5ft 12s 11 13 mph 1008.3mb 35f 36f
2:00am 9ft 12s 9 11 mph 1007.9mb 35f 37f
1:00am 10ft 12s 13 18 mph 1007.4mb 35f 37f
12:00am 9.5ft 12s 7 11 mph 1007.1mb 35f 37f
Wed 01/28 11:00pm 10.5ft 11s 9
mph
1006.8mb 35f 37f
10:00pm 10ft 12s 4 7 mph 1006.4mb 35f 37f
9:00pm 10ft 10s 4 7 mph 1006mb 35f 37f
8:00pm 9ft 10s 11 16 mph 1005.4mb 35f 37f
7:00pm 9.5ft 13s 16 18 mph 1004.6mb 35f 36f
6:00pm 9.5ft 10s 9 11 mph 1004.8mb 35f 36f
5:00pm 8.5ft 12s 11 16 mph 1005mb 35f 36f
4:00pm 8ft 10s 11 13 mph 1005.3mb 35f 35f
3:00pm 7.5ft 10s 7 9 mph 1004.6mb 35f 35f
2:00pm 8ft 10s 2 4 mph 1005.4mb 35f 36f
1:00pm 8ft 10s 4 9 mph 1005.7mb 35f 36f
12:00pm 8ft 11s 9
mph
1005.6mb 35f 36f
11:00am 8ft 11s 7 9 mph 1005.3mb 35f 36f
10:00am 8ft 10s 9
mph
1005mb 35f 36f
9:00am 7.5ft 11s 13 16 mph 1004.9mb 35f 36f
8:00am 8ft 11s 16 20 mph 1003.2mb 35f 36f
7:00am 8.5ft 11s 20 25 mph 1002.4mb 35f 36f
6:00am 9.5ft 11s 22 27 mph 1001.9mb 35f 35f
5:00am 9ft 11s 22 34 mph 1001.7mb 35f 35f
4:00am 10ft 11s 29 38 mph 1000.6mb 35f 34f
3:00am 10ft 7s 31 36 mph 1001.2mb 35f 34f
2:00am  -   -  29
mph
- - 34f
1:00am 13ft 11s 31 38 mph 1003.1mb 35f 33f
12:00am 14ft 8s 34 40 mph 1004.3mb 35f 32f
Tue 01/27 11:00pm 13.5ft 8s 31 38 mph 1004.8mb 35f 31f
8:00pm  -   -  40
mph
- - 29f
7:00pm 15ft 8s 36 45 mph 1009.3mb 35f 29f
6:00pm  -   -  38
mph
- - -
5:00pm 13ft 9s 40 56 mph 1011.2mb 35f 27f
4:00pm  -   -  45
mph
- - -
3:00pm 12.5ft 8s 43 51 mph 1012.6mb 35f 24f
8:00am 6.5ft 11s 25 31 mph 1029.7mb 34f 21f
7:00am 7ft 10s 20 27 mph 1030.3mb 34f 19f
6:00am 7ft 12s 20 25 mph 1029.8mb 34f 18f
1:00am 8.5ft 13s 16 22 mph 1028.9mb 35f 21f